createdAt,value
2022-09-28T00:00:41.125Z,0.43
2022-09-28T00:04:43.814Z,0.30
2022-09-28T00:08:46.569Z,0.40
2022-09-28T00:12:49.312Z,0.22
2022-09-28T00:16:53.369Z,0.40
2022-09-28T00:21:04.650Z,0.50
2022-09-28T00:25:08.302Z,0.60
2022-09-28T00:29:17.516Z,0.40
2022-09-28T00:33:22.265Z,0.30
2022-09-28T00:37:24.945Z,0.40
2022-09-28T00:41:29.581Z,0.50
2022-09-28T00:45:32.438Z,0.30
2022-09-28T00:49:41.740Z,0.17
2022-09-28T00:53:45.379Z,0.40
2022-09-28T00:57:51.572Z,0.20
2022-09-28T01:01:54.308Z,0.60
2022-09-28T01:06:02.179Z,0.85
2022-09-28T01:10:06.825Z,0.93
2022-09-28T01:14:12.845Z,0.43
2022-09-28T01:18:20.877Z,0.30
2022-09-28T01:22:39.657Z,0.40
2022-09-28T01:26:53.648Z,0.55
2022-09-28T01:31:07.577Z,0.38
2022-09-28T01:35:15.353Z,0.20
2022-09-28T01:39:24.247Z,0.30
2022-09-28T01:43:30.431Z,0.30
2022-09-28T01:47:38.717Z,0.25
2022-09-28T01:51:44.678Z,0.55
2022-09-28T01:55:51.589Z,0.40
2022-09-28T02:00:00.835Z,0.73
2022-09-28T02:04:11.091Z,0.50
2022-09-28T02:08:20.786Z,0.50
2022-09-28T02:12:34.525Z,0.40
2022-09-28T02:16:41.383Z,0.63
2022-09-28T02:20:53.393Z,0.85
2022-09-28T02:24:59.684Z,0.50
2022-09-28T02:29:05.029Z,0.40
2022-09-28T02:33:13.700Z,0.68
2022-09-28T02:37:16.554Z,0.50
2022-09-28T02:41:27.856Z,0.60
2022-09-28T02:45:43.085Z,0.60
2022-09-28T02:49:53.554Z,0.57
2022-09-28T02:54:13.414Z,0.45
2022-09-28T02:58:26.145Z,0.40
2022-09-28T03:02:35.739Z,0.80
2022-09-28T03:06:46.775Z,0.75
2022-09-28T03:10:54.055Z,0.47
2022-09-28T03:15:20.155Z,0.50
2022-09-28T03:19:27.178Z,1.30
2022-09-28T03:27:34.031Z,0.70
2022-09-28T03:31:37.925Z,0.60
2022-09-28T03:35:40.725Z,0.50
2022-09-28T03:39:44.830Z,0.85
2022-09-28T03:43:47.657Z,1.20
2022-09-28T03:47:50.419Z,0.85
2022-09-28T03:51:54.721Z,0.68
2022-09-28T03:56:04.285Z,0.52
2022-09-28T04:00:09.009Z,0.30
2022-09-28T04:04:17.299Z,1.02
2022-09-28T04:08:21.215Z,0.90
2022-09-28T04:12:26.305Z,0.43
2022-09-28T04:16:29.362Z,0.30
2022-09-28T04:21:06.440Z,0.50
2022-09-28T04:25:13.099Z,0.65
2022-09-28T04:29:17.294Z,0.40
2022-09-28T04:33:24.279Z,0.80
2022-09-28T04:37:27.537Z,1.30
2022-09-28T04:41:30.270Z,0.30
2022-09-28T04:45:34.485Z,0.50
2022-09-28T04:49:43.619Z,0.50
2022-09-28T04:53:51.085Z,0.55
2022-09-28T04:57:54.593Z,0.50
2022-09-28T05:01:58.706Z,1.30
2022-09-28T05:06:04.753Z,0.90
2022-09-28T05:10:21.236Z,0.77
2022-09-28T05:14:24.388Z,0.75
2022-09-28T05:18:29.368Z,0.50
2022-09-28T05:22:38.137Z,0.50
2022-09-28T05:26:43.738Z,0.57
2022-09-28T05:30:47.390Z,0.40
2022-09-28T05:35:08.239Z,0.30
2022-09-28T05:39:17.514Z,0.80
2022-09-28T05:43:21.166Z,0.45
2022-09-28T05:47:23.931Z,0.47
2022-09-28T05:51:28.207Z,0.68
2022-09-28T05:55:31.535Z,0.55
2022-09-28T05:59:36.083Z,0.40
2022-09-28T06:03:38.871Z,0.57
2022-09-28T06:07:44.222Z,0.68
2022-09-28T06:11:47.019Z,0.90
2022-09-28T06:16:18.645Z,0.57
2022-09-28T06:20:21.594Z,0.70
2022-09-28T06:24:45.495Z,0.60
2022-09-28T06:28:48.339Z,0.40
2022-09-28T06:32:54.940Z,0.75
2022-09-28T06:36:57.943Z,0.68
2022-09-28T06:41:02.706Z,1.02
2022-09-28T06:45:06.787Z,0.77
2022-09-28T06:49:19.990Z,0.70
2022-09-28T06:53:42.825Z,0.88
2022-09-28T06:58:00.134Z,0.60
2022-09-28T07:02:02.854Z,0.32
2022-09-28T07:06:32.466Z,0.40
2022-09-28T07:10:56.175Z,0.47
2022-09-28T07:15:09.030Z,0.15
2022-09-28T07:19:11.756Z,0.45
2022-09-28T07:23:19.238Z,0.50
2022-09-28T07:27:59.526Z,0.22
2022-09-28T07:32:40.112Z,0.40
2022-09-28T07:37:02.520Z,0.43
2022-09-28T07:41:16.803Z,0.47
2022-09-28T07:45:24.495Z,0.20
2022-09-28T07:49:28.758Z,0.52
2022-09-28T07:53:49.040Z,0.50
2022-09-28T07:58:09.849Z,0.52
2022-09-28T08:02:32.302Z,0.60
2022-09-28T08:06:36.767Z,0.45
2022-09-28T08:10:46.974Z,0.55
2022-09-28T08:15:00.071Z,0.20
2022-09-28T08:19:11.122Z,0.30
2022-09-28T08:23:15.207Z,0.35
2022-09-28T08:27:18.322Z,0.30
2022-09-28T08:31:21.108Z,0.22
2022-09-28T08:35:43.851Z,0.30
2022-09-28T08:40:19.470Z,0.13
2022-09-28T08:49:25.040Z,3.42
2022-09-28T08:53:57.806Z,4.90
2022-09-28T08:58:13.338Z,0.75
2022-09-28T09:02:22.338Z,0.52
2022-09-28T09:06:34.362Z,1.40
2022-09-28T09:11:02.855Z,1.92
2022-09-28T09:15:26.472Z,2.80
2022-09-28T09:19:36.212Z,1.80
2022-09-28T09:23:57.416Z,1.08
2022-09-28T09:28:25.091Z,1.15
2022-09-28T09:32:54.161Z,0.80
2022-09-28T09:37:09.714Z,0.52
2022-09-28T09:41:38.943Z,0.60
2022-09-28T09:46:07.948Z,0.70
2022-09-28T09:50:29.619Z,0.50
2022-09-28T09:54:37.835Z,0.50
2022-09-28T09:58:47.961Z,0.50
2022-09-28T10:02:55.941Z,0.30
2022-09-28T10:07:19.832Z,0.60
2022-09-28T10:11:28.147Z,1.10
2022-09-28T10:15:33.830Z,0.63
2022-09-28T10:19:47.831Z,0.80
2022-09-28T10:24:18.180Z,3.10
2022-09-28T10:28:31.540Z,0.95
2022-09-28T10:32:39.383Z,4.38
2022-09-28T10:36:50.362Z,1.08
2022-09-28T10:40:56.704Z,4.88
2022-09-28T10:45:21.053Z,6.90
2022-09-28T10:49:25.819Z,1.85
2022-09-28T10:53:33.056Z,4.85
2022-09-28T10:57:40.759Z,1.10
2022-09-28T11:05:57.322Z,0.80
2022-09-28T11:10:04.034Z,1.80
2022-09-28T11:14:27.148Z,1.20
2022-09-28T11:18:34.349Z,1.50
2022-09-28T11:22:44.278Z,3.10
2022-09-28T11:26:50.383Z,1.20
2022-09-28T11:30:59.183Z,2.15
2022-09-28T11:35:23.909Z,0.90
2022-09-28T11:39:35.695Z,0.55
2022-09-28T11:43:57.790Z,1.35
2022-09-28T11:48:05.646Z,0.70
2022-09-28T11:52:17.580Z,0.80
2022-09-28T11:56:32.118Z,0.47
2022-09-28T12:00:41.040Z,4.22
2022-09-28T12:04:49.731Z,2.25
2022-09-28T12:08:59.498Z,2.05
2022-09-28T12:13:25.334Z,0.60
2022-09-28T12:17:33.686Z,0.88
2022-09-28T12:21:44.952Z,0.88
2022-09-28T12:25:52.676Z,1.33
2022-09-28T12:30:03.078Z,0.82
2022-09-28T12:34:06.663Z,0.73
2022-09-28T12:38:25.757Z,0.88
2022-09-28T12:42:46.386Z,0.90
2022-09-28T12:47:05.451Z,0.80
2022-09-28T12:51:19.406Z,0.82
2022-09-28T12:55:40.477Z,0.90
2022-09-28T12:59:52.951Z,1.00
2022-09-28T13:04:14.300Z,1.00
2022-09-28T13:08:25.945Z,1.08
2022-09-28T13:12:44.002Z,1.77
2022-09-28T13:16:58.395Z,1.30
2022-09-28T13:21:14.948Z,1.23
2022-09-28T13:25:21.537Z,1.10
2022-09-28T13:33:36.783Z,1.10
2022-09-28T13:37:40.642Z,1.30
2022-09-28T13:41:50.580Z,1.38
2022-09-28T13:45:58.599Z,1.13
2022-09-28T13:50:14.332Z,1.25
2022-09-28T13:54:30.139Z,1.20
2022-09-28T13:58:39.319Z,1.10
2022-09-28T14:02:47.749Z,1.00
2022-09-28T14:06:55.626Z,1.15
2022-09-28T14:11:19.259Z,1.10
2022-09-28T14:15:46.591Z,1.05
2022-09-28T14:19:56.425Z,1.40
2022-09-28T14:24:16.403Z,0.80
2022-09-28T14:28:43.225Z,1.15
2022-09-28T14:32:53.424Z,1.13
2022-09-28T14:37:14.817Z,1.25
2022-09-28T14:41:34.121Z,1.10
2022-09-28T14:45:38.251Z,1.20
2022-09-28T14:49:51.186Z,1.23
2022-09-28T14:54:00.247Z,1.35
2022-09-28T14:58:04.579Z,1.10
2022-09-28T15:02:15.069Z,2.35
2022-09-28T15:06:19.626Z,2.33
2022-09-28T15:10:28.175Z,2.13
2022-09-28T15:14:32.847Z,1.92
2022-09-28T15:19:13.274Z,1.70
2022-09-28T15:23:27.858Z,4.10
2022-09-28T15:27:37.926Z,3.28
2022-09-28T15:31:40.611Z,2.72
2022-09-28T15:35:43.668Z,2.67
2022-09-28T15:39:48.051Z,2.75
2022-09-28T15:44:08.391Z,3.75
2022-09-28T15:48:31.882Z,3.13
2022-09-28T15:52:38.770Z,3.38
2022-09-28T15:56:52.866Z,2.50
2022-09-28T16:01:28.448Z,2.63
2022-09-28T16:05:40.430Z,2.70
2022-09-28T16:09:54.996Z,2.17
2022-09-28T16:14:05.937Z,2.92
2022-09-28T16:18:20.391Z,2.85
2022-09-28T16:22:28.122Z,2.78
2022-09-28T16:26:34.136Z,2.50
2022-09-28T16:30:36.923Z,2.90
2022-09-28T16:34:41.007Z,2.63
2022-09-28T16:38:45.371Z,2.35
2022-09-28T16:42:49.287Z,4.40
2022-09-28T16:46:55.019Z,4.70
2022-09-28T16:50:59.767Z,3.05
2022-09-28T16:59:40.314Z,2.70
2022-09-28T17:03:46.672Z,4.43
2022-09-28T17:08:00.195Z,3.60
2022-09-28T17:12:03.098Z,2.05
2022-09-28T17:16:10.376Z,1.80
2022-09-28T17:20:22.361Z,2.65
2022-09-28T17:24:26.491Z,4.72
2022-09-28T17:28:32.728Z,4.90
2022-09-28T17:32:35.522Z,6.28
2022-09-28T17:36:38.623Z,4.57
2022-09-28T17:40:43.859Z,4.43
2022-09-28T17:44:46.603Z,4.35
2022-09-28T17:48:49.698Z,3.78
2022-09-28T17:52:53.713Z,6.28
2022-09-28T17:56:58.156Z,4.40
2022-09-28T18:01:00.843Z,4.47
2022-09-28T18:05:03.561Z,4.50
2022-09-28T18:09:06.366Z,2.92
2022-09-28T18:13:10.897Z,2.60
2022-09-28T18:17:13.733Z,2.72
2022-09-28T18:21:16.541Z,3.42
2022-09-28T18:25:19.481Z,3.20
2022-09-28T18:29:23.563Z,3.30
2022-09-28T18:33:26.243Z,3.42
2022-09-28T18:37:28.935Z,4.00
2022-09-28T18:41:31.655Z,4.43
2022-09-28T18:45:36.699Z,4.03
2022-09-28T18:49:41.660Z,3.30
2022-09-28T18:53:47.967Z,2.08
2022-09-28T18:57:51.380Z,2.20
2022-09-28T19:01:55.552Z,1.92
2022-09-28T19:05:58.311Z,1.95
2022-09-28T19:10:01.058Z,1.50
2022-09-28T19:14:04.384Z,1.60
2022-09-28T19:18:08.471Z,1.80
2022-09-28T19:22:11.159Z,1.60
2022-09-28T19:26:15.519Z,1.83
2022-09-28T19:30:18.235Z,2.30
2022-09-28T19:34:24.288Z,2.20
2022-09-28T19:38:29.553Z,1.45
2022-09-28T19:42:32.342Z,1.52
2022-09-28T19:46:35.238Z,1.25
2022-09-28T19:50:39.618Z,1.88
2022-09-28T19:54:44.372Z,1.40
2022-09-28T19:58:47.063Z,1.75
2022-09-28T20:02:49.804Z,1.83
2022-09-28T20:06:53.949Z,1.38
2022-09-28T20:10:59.541Z,1.60
2022-09-28T20:15:02.250Z,1.47
2022-09-28T20:19:08.575Z,1.83
2022-09-28T20:23:13.255Z,1.60
2022-09-28T20:27:16.025Z,1.48
2022-09-28T20:31:20.404Z,2.03
2022-09-28T20:35:32.699Z,1.48
2022-09-28T20:39:40.363Z,1.73
2022-09-28T20:43:46.610Z,1.20
2022-09-28T20:47:49.298Z,1.70
2022-09-28T20:51:51.979Z,1.27
2022-09-28T20:56:04.872Z,1.30
2022-09-28T21:00:10.003Z,1.38
2022-09-28T21:04:12.895Z,1.90
2022-09-28T21:08:15.678Z,2.00
2022-09-28T21:12:19.742Z,2.03
2022-09-28T21:16:22.557Z,1.90
2022-09-28T21:20:25.247Z,1.40
2022-09-28T21:24:27.912Z,2.28
2022-09-28T21:28:32.015Z,2.08
2022-09-28T21:32:35.251Z,2.08
2022-09-28T21:36:38.334Z,1.58
2022-09-28T21:40:41.838Z,1.67
2022-09-28T21:44:45.901Z,1.52
2022-09-28T21:48:52.347Z,1.67
2022-09-28T21:52:56.624Z,1.50
2022-09-28T21:57:01.298Z,1.60
2022-09-28T22:01:07.898Z,1.83
2022-09-28T22:05:12.540Z,1.48
2022-09-28T22:09:15.276Z,1.77
2022-09-28T22:13:17.955Z,1.65
2022-09-28T22:17:22.046Z,2.15
2022-09-28T22:21:26.821Z,1.67
2022-09-28T22:25:29.485Z,2.00
2022-09-28T22:29:32.193Z,1.55
2022-09-28T22:33:36.230Z,2.25
2022-09-28T22:37:38.919Z,1.67
2022-09-28T22:41:41.706Z,1.98
2022-09-28T22:45:44.390Z,1.90
2022-09-28T22:49:48.478Z,1.77
2022-09-28T22:53:51.218Z,1.58
2022-09-28T22:57:53.896Z,1.50
2022-09-28T23:01:56.616Z,1.50
2022-09-28T23:06:00.679Z,1.58
2022-09-28T23:10:03.365Z,1.20
2022-09-28T23:14:06.552Z,2.00
2022-09-28T23:18:09.434Z,1.88
2022-09-28T23:22:13.507Z,1.65
2022-09-28T23:26:18.099Z,1.70
2022-09-28T23:30:21.211Z,2.20
2022-09-28T23:34:23.990Z,1.20
2022-09-28T23:38:28.127Z,1.90
2022-09-28T23:42:30.835Z,3.45
2022-09-28T23:46:33.554Z,1.98
2022-09-28T23:50:36.304Z,2.30
2022-09-28T23:54:40.359Z,2.05
2022-09-28T23:58:43.398Z,1.60
